Saratoga, Texas
Current Conditions -  °F | °C
As of 2:15 AM on Monday 26 Jan 2015 (Local Time) from KBMT Reporting Station
Clear Clear  
Wind Chill: 45°   Ceiling: Unl
Heat Index: 49°   Visibility: 10mi
Dew Point: 32°   Wind: 9mph
Humidity: 51%   Direction: 340°NNW
Pressure: 30.14"   Gusts: NA
Location:  30.28°N, 94.53°W
Report Text: KBMT 260815Z AUTO 34008KT 10SM CLR 10/00 A3014 RMK AO2 T00951001
Loading
Personal Weather Stations






























Interactive Weather Map New forecast layout! Learn more

10-Day Weather Forecast

Advertisements
Track Severe Weather on mobile